createdAt,value
2022-09-28T04:51:53.223Z,7.00
2022-09-28T04:54:21.190Z,6.90
2022-09-28T04:56:49.059Z,6.80
2022-09-28T04:59:17.117Z,6.90
2022-09-28T05:01:45.114Z,6.90
2022-09-28T05:04:13.299Z,7.00
2022-09-28T05:22:42.766Z,7.40
2022-09-28T05:25:11.054Z,7.30
2022-09-28T05:27:38.948Z,7.30
2022-09-28T05:30:08.266Z,7.30
2022-09-28T05:32:36.157Z,7.30
2022-09-28T05:35:06.294Z,7.40
2022-09-28T05:37:36.796Z,7.40
2022-09-28T11:17:47.636Z,8.70
2022-09-28T11:20:43.550Z,8.90
2022-09-28T11:23:31.881Z,9.20
2022-09-28T11:26:13.715Z,9.20
2022-09-28T11:28:44.626Z,9.30
2022-09-28T11:38:47.433Z,9.00
2022-09-28T11:41:33.250Z,9.00
2022-09-28T11:44:22.804Z,9.00
2022-09-28T11:47:02.645Z,9.30
2022-09-28T11:49:35.885Z,9.50
2022-09-28T11:52:09.398Z,9.60
2022-09-28T11:54:45.347Z,9.70
2022-09-28T11:57:16.993Z,9.70
2022-09-28T11:59:55.803Z,9.70
2022-09-28T12:02:28.444Z,9.60
2022-09-28T12:13:05.725Z,9.40
2022-09-28T12:16:11.612Z,9.60
2022-09-28T12:18:41.212Z,10.00
2022-09-28T12:21:20.318Z,10.30
2022-09-28T12:23:50.444Z,10.40
2022-09-28T12:26:32.560Z,10.20
2022-09-28T12:29:12.433Z,10.20
2022-09-28T12:31:52.517Z,10.20
2022-09-28T12:34:23.133Z,10.20
2022-09-28T12:37:06.401Z,10.00
2022-09-28T13:56:14.840Z,11.20
2022-09-28T15:14:50.926Z,11.40
2022-09-28T15:29:06.512Z,10.60
2022-09-28T15:36:01.975Z,10.50
2022-09-28T15:46:15.221Z,10.70
2022-09-28T15:49:27.038Z,10.80
2022-09-28T15:56:42.873Z,10.70
2022-09-28T16:06:58.713Z,10.00
2022-09-28T16:18:01.860Z,10.10
2022-09-28T16:21:37.748Z,10.00
2022-09-28T16:28:57.079Z,10.50
2022-09-28T16:32:27.255Z,10.20
2022-09-28T17:41:21.271Z,8.30
2022-09-28T17:45:20.395Z,8.10
2022-09-28T18:03:55.546Z,8.10
